sensor_id;sensor_type;location;lat;lon;timestamp;P1;durP1;ratioP1;P2;durP2;ratioP2
14080;SDS011;7116;52.152;5.392;2023-08-24T00:01:19;7.37;;;3.17;;
14080;SDS011;7116;52.152;5.392;2023-08-24T00:03:47;6.07;;;3.10;;
14080;SDS011;7116;52.152;5.392;2023-08-24T00:06:13;9.33;;;3.57;;
14080;SDS011;7116;52.152;5.392;2023-08-24T00:09:01;12.00;;;4.00;;
14080;SDS011;7116;52.152;5.392;2023-08-24T00:11:37;5.43;;;3.55;;
14080;SDS011;7116;52.152;5.392;2023-08-24T00:14:02;5.40;;;3.40;;
14080;SDS011;7116;52.152;5.392;2023-08-24T00:16:33;10.63;;;3.50;;
14080;SDS011;7116;52.152;5.392;2023-08-24T00:18:58;9.00;;;3.90;;
14080;SDS011;7116;52.152;5.392;2023-08-24T00:21:26;6.40;;;4.00;;
14080;SDS011;7116;52.152;5.392;2023-08-24T00:24:06;6.70;;;3.70;;
14080;SDS011;7116;52.152;5.392;2023-08-24T00:29:44;5.45;;;3.38;;
14080;SDS011;7116;52.152;5.392;2023-08-24T00:32:29;6.80;;;3.65;;
14080;SDS011;7116;52.152;5.392;2023-08-24T00:35:21;6.67;;;3.10;;
14080;SDS011;7116;52.152;5.392;2023-08-24T00:38:07;4.78;;;2.90;;
14080;SDS011;7116;52.152;5.392;2023-08-24T00:40:32;5.37;;;3.80;;
14080;SDS011;7116;52.152;5.392;2023-08-24T00:43:07;8.13;;;3.88;;
14080;SDS011;7116;52.152;5.392;2023-08-24T00:48:51;7.32;;;3.78;;
14080;SDS011;7116;52.152;5.392;2023-08-24T00:51:16;6.37;;;3.57;;
14080;SDS011;7116;52.152;5.392;2023-08-24T00:53:45;6.55;;;3.83;;
14080;SDS011;7116;52.152;5.392;2023-08-24T00:56:37;7.93;;;4.18;;
14080;SDS011;7116;52.152;5.392;2023-08-24T00:59:22;9.63;;;3.90;;
14080;SDS011;7116;52.152;5.392;2023-08-24T01:04:48;5.22;;;3.55;;
14080;SDS011;7116;52.152;5.392;2023-08-24T01:07:14;5.23;;;3.60;;
14080;SDS011;7116;52.152;5.392;2023-08-24T01:09:40;6.25;;;4.13;;
14080;SDS011;7116;52.152;5.392;2023-08-24T01:12:19;5.97;;;3.57;;
14080;SDS011;7116;52.152;5.392;2023-08-24T01:17:17;4.93;;;3.10;;
14080;SDS011;7116;52.152;5.392;2023-08-24T01:19:44;7.72;;;3.40;;
14080;SDS011;7116;52.152;5.392;2023-08-24T01:24:44;6.78;;;3.38;;
14080;SDS011;7116;52.152;5.392;2023-08-24T01:27:09;6.95;;;3.60;;
14080;SDS011;7116;52.152;5.392;2023-08-24T01:29:35;5.87;;;3.97;;
14080;SDS011;7116;52.152;5.392;2023-08-24T01:32:11;5.38;;;3.85;;
14080;SDS011;7116;52.152;5.392;2023-08-24T01:34:39;9.10;;;4.10;;
14080;SDS011;7116;52.152;5.392;2023-08-24T01:37:07;8.90;;;3.97;;
14080;SDS011;7116;52.152;5.392;2023-08-24T01:39:43;8.48;;;3.83;;
14080;SDS011;7116;52.152;5.392;2023-08-24T01:42:11;7.75;;;4.07;;
14080;SDS011;7116;52.152;5.392;2023-08-24T01:44:39;5.60;;;3.83;;
14080;SDS011;7116;52.152;5.392;2023-08-24T01:47:07;5.93;;;3.40;;
14080;SDS011;7116;52.152;5.392;2023-08-24T01:49:36;6.97;;;3.90;;
14080;SDS011;7116;52.152;5.392;2023-08-24T01:52:02;5.47;;;3.53;;
14080;SDS011;7116;52.152;5.392;2023-08-24T01:54:28;8.15;;;4.20;;
14080;SDS011;7116;52.152;5.392;2023-08-24T01:56:53;5.90;;;3.77;;
14080;SDS011;7116;52.152;5.392;2023-08-24T01:59:18;6.33;;;3.90;;
14080;SDS011;7116;52.152;5.392;2023-08-24T02:01:45;7.13;;;4.20;;
14080;SDS011;7116;52.152;5.392;2023-08-24T02:04:11;8.05;;;3.33;;
14080;SDS011;7116;52.152;5.392;2023-08-24T02:06:36;6.20;;;4.03;;
14080;SDS011;7116;52.152;5.392;2023-08-24T02:09:02;8.07;;;4.30;;
14080;SDS011;7116;52.152;5.392;2023-08-24T02:11:27;4.63;;;3.60;;
14080;SDS011;7116;52.152;5.392;2023-08-24T02:13:52;9.97;;;4.30;;
14080;SDS011;7116;52.152;5.392;2023-08-24T02:16:17;11.47;;;4.57;;
14080;SDS011;7116;52.152;5.392;2023-08-24T02:18:43;8.07;;;4.13;;
14080;SDS011;7116;52.152;5.392;2023-08-24T02:21:08;6.93;;;3.63;;
14080;SDS011;7116;52.152;5.392;2023-08-24T02:23:35;7.72;;;3.90;;
14080;SDS011;7116;52.152;5.392;2023-08-24T02:26:02;6.77;;;4.63;;
14080;SDS011;7116;52.152;5.392;2023-08-24T02:28:29;6.28;;;4.10;;
14080;SDS011;7116;52.152;5.392;2023-08-24T02:30:59;7.03;;;3.73;;
14080;SDS011;7116;52.152;5.392;2023-08-24T02:33:27;5.53;;;3.85;;
14080;SDS011;7116;52.152;5.392;2023-08-24T02:35:52;8.47;;;4.23;;
14080;SDS011;7116;52.152;5.392;2023-08-24T02:38:17;7.53;;;4.20;;
14080;SDS011;7116;52.152;5.392;2023-08-24T02:40:42;7.10;;;4.67;;
14080;SDS011;7116;52.152;5.392;2023-08-24T02:43:10;7.40;;;4.43;;
14080;SDS011;7116;52.152;5.392;2023-08-24T02:45:35;12.50;;;4.93;;
14080;SDS011;7116;52.152;5.392;2023-08-24T02:48:10;7.28;;;4.40;;
14080;SDS011;7116;52.152;5.392;2023-08-24T02:50:45;9.87;;;5.60;;
14080;SDS011;7116;52.152;5.392;2023-08-24T02:53:27;7.20;;;4.50;;
14080;SDS011;7116;52.152;5.392;2023-08-24T02:59:08;7.55;;;4.32;;
14080;SDS011;7116;52.152;5.392;2023-08-24T03:01:34;8.80;;;4.77;;
14080;SDS011;7116;52.152;5.392;2023-08-24T03:03:59;8.90;;;4.37;;
14080;SDS011;7116;52.152;5.392;2023-08-24T03:06:24;11.80;;;4.43;;
14080;SDS011;7116;52.152;5.392;2023-08-24T03:08:52;7.82;;;4.70;;
14080;SDS011;7116;52.152;5.392;2023-08-24T03:11:17;6.10;;;4.70;;
14080;SDS011;7116;52.152;5.392;2023-08-24T03:13:43;9.27;;;4.73;;
14080;SDS011;7116;52.152;5.392;2023-08-24T03:16:08;7.77;;;4.77;;
14080;SDS011;7116;52.152;5.392;2023-08-24T03:18:34;7.97;;;3.60;;
14080;SDS011;7116;52.152;5.392;2023-08-24T03:20:59;7.50;;;4.30;;
14080;SDS011;7116;52.152;5.392;2023-08-24T03:23:24;5.83;;;4.17;;
14080;SDS011;7116;52.152;5.392;2023-08-24T03:25:52;10.57;;;4.38;;
14080;SDS011;7116;52.152;5.392;2023-08-24T03:28:20;10.27;;;4.72;;
14080;SDS011;7116;52.152;5.392;2023-08-24T03:30:52;7.03;;;4.20;;
14080;SDS011;7116;52.152;5.392;2023-08-24T03:33:19;9.15;;;4.38;;
14080;SDS011;7116;52.152;5.392;2023-08-24T03:35:44;5.97;;;4.20;;
14080;SDS011;7116;52.152;5.392;2023-08-24T03:38:10;10.88;;;4.72;;
14080;SDS011;7116;52.152;5.392;2023-08-24T03:40:38;6.80;;;4.97;;
14080;SDS011;7116;52.152;5.392;2023-08-24T03:43:23;6.55;;;4.45;;
14080;SDS011;7116;52.152;5.392;2023-08-24T03:45:48;7.77;;;4.90;;
14080;SDS011;7116;52.152;5.392;2023-08-24T03:48:21;9.10;;;5.40;;
14080;SDS011;7116;52.152;5.392;2023-08-24T03:50:57;9.10;;;4.97;;
14080;SDS011;7116;52.152;5.392;2023-08-24T03:53:45;5.88;;;4.32;;
14080;SDS011;7116;52.152;5.392;2023-08-24T04:02:42;6.77;;;4.77;;
14080;SDS011;7116;52.152;5.392;2023-08-24T04:05:07;9.70;;;5.37;;
14080;SDS011;7116;52.152;5.392;2023-08-24T04:07:36;9.15;;;4.05;;
14080;SDS011;7116;52.152;5.392;2023-08-24T04:10:05;8.20;;;4.68;;
14080;SDS011;7116;52.152;5.392;2023-08-24T04:12:58;7.28;;;4.70;;
14080;SDS011;7116;52.152;5.392;2023-08-24T04:15:26;7.18;;;4.32;;
14080;SDS011;7116;52.152;5.392;2023-08-24T04:27:15;7.07;;;4.55;;
14080;SDS011;7116;52.152;5.392;2023-08-24T04:29:52;7.80;;;5.18;;
14080;SDS011;7116;52.152;5.392;2023-08-24T04:32:19;9.13;;;5.47;;
14080;SDS011;7116;52.152;5.392;2023-08-24T04:34:47;6.30;;;4.63;;
14080;SDS011;7116;52.152;5.392;2023-08-24T04:37:12;8.00;;;4.33;;
14080;SDS011;7116;52.152;5.392;2023-08-24T04:39:58;7.93;;;4.80;;
14080;SDS011;7116;52.152;5.392;2023-08-24T04:42:41;5.97;;;4.90;;
14080;SDS011;7116;52.152;5.392;2023-08-24T04:45:09;7.13;;;4.40;;
14080;SDS011;7116;52.152;5.392;2023-08-24T04:50:37;10.40;;;4.85;;
14080;SDS011;7116;52.152;5.392;2023-08-24T04:53:30;8.23;;;4.40;;
14080;SDS011;7116;52.152;5.392;2023-08-24T04:56:10;7.03;;;4.93;;
14080;SDS011;7116;52.152;5.392;2023-08-24T04:58:58;10.95;;;4.75;;
14080;SDS011;7116;52.152;5.392;2023-08-24T05:01:33;11.52;;;5.07;;
14080;SDS011;7116;52.152;5.392;2023-08-24T05:04:10;7.45;;;4.65;;
14080;SDS011;7116;52.152;5.392;2023-08-24T05:06:35;8.43;;;5.50;;
14080;SDS011;7116;52.152;5.392;2023-08-24T05:09:03;8.98;;;5.95;;
14080;SDS011;7116;52.152;5.392;2023-08-24T05:11:38;8.90;;;5.00;;
14080;SDS011;7116;52.152;5.392;2023-08-24T05:14:13;9.73;;;4.57;;
14080;SDS011;7116;52.152;5.392;2023-08-24T05:16:44;11.70;;;5.30;;
14080;SDS011;7116;52.152;5.392;2023-08-24T05:19:11;9.30;;;5.00;;
14080;SDS011;7116;52.152;5.392;2023-08-24T05:21:44;6.63;;;4.90;;
14080;SDS011;7116;52.152;5.392;2023-08-24T05:24:47;8.65;;;5.60;;
14080;SDS011;7116;52.152;5.392;2023-08-24T05:27:18;8.70;;;4.47;;
14080;SDS011;7116;52.152;5.392;2023-08-24T05:29:43;11.27;;;5.17;;
14080;SDS011;7116;52.152;5.392;2023-08-24T05:32:10;7.40;;;4.78;;
14080;SDS011;7116;52.152;5.392;2023-08-24T05:34:35;10.63;;;4.80;;
14080;SDS011;7116;52.152;5.392;2023-08-24T05:37:06;8.25;;;4.65;;
14080;SDS011;7116;52.152;5.392;2023-08-24T05:39:51;6.95;;;4.65;;
14080;SDS011;7116;52.152;5.392;2023-08-24T05:48:30;8.00;;;4.65;;
14080;SDS011;7116;52.152;5.392;2023-08-24T05:54:07;8.88;;;4.50;;
14080;SDS011;7116;52.152;5.392;2023-08-24T05:57:10;8.82;;;5.40;;
14080;SDS011;7116;52.152;5.392;2023-08-24T06:00:17;9.60;;;5.30;;
14080;SDS011;7116;52.152;5.392;2023-08-24T06:03:12;12.68;;;5.30;;
14080;SDS011;7116;52.152;5.392;2023-08-24T06:06:20;7.78;;;4.63;;
14080;SDS011;7116;52.152;5.392;2023-08-24T06:09:13;6.13;;;4.43;;
14080;SDS011;7116;52.152;5.392;2023-08-24T06:12:06;8.77;;;5.35;;
14080;SDS011;7116;52.152;5.392;2023-08-24T06:18:02;9.40;;;4.97;;
14080;SDS011;7116;52.152;5.392;2023-08-24T06:36:43;8.02;;;4.60;;
14080;SDS011;7116;52.152;5.392;2023-08-24T06:42:15;17.42;;;5.32;;
14080;SDS011;7116;52.152;5.392;2023-08-24T06:44:52;9.60;;;4.60;;
14080;SDS011;7116;52.152;5.392;2023-08-24T06:47:58;10.60;;;4.68;;
14080;SDS011;7116;52.152;5.392;2023-08-24T06:50:42;9.43;;;4.80;;
14080;SDS011;7116;52.152;5.392;2023-08-24T06:59:09;13.63;;;4.63;;
14080;SDS011;7116;52.152;5.392;2023-08-24T07:07:55;9.35;;;5.55;;
14080;SDS011;7116;52.152;5.392;2023-08-24T07:10:24;15.05;;;5.30;;
14080;SDS011;7116;52.152;5.392;2023-08-24T07:15:47;7.90;;;5.43;;
14080;SDS011;7116;52.152;5.392;2023-08-24T07:18:20;8.40;;;4.85;;
14080;SDS011;7116;52.152;5.392;2023-08-24T07:21:05;11.97;;;6.40;;
14080;SDS011;7116;52.152;5.392;2023-08-24T07:23:49;8.95;;;5.40;;
14080;SDS011;7116;52.152;5.392;2023-08-24T07:26:22;14.32;;;6.15;;
14080;SDS011;7116;52.152;5.392;2023-08-24T07:31:56;8.45;;;5.15;;
14080;SDS011;7116;52.152;5.392;2023-08-24T07:34:32;11.90;;;6.70;;
14080;SDS011;7116;52.152;5.392;2023-08-24T07:37:20;9.95;;;5.90;;
14080;SDS011;7116;52.152;5.392;2023-08-24T07:52:15;7.15;;;4.63;;
14080;SDS011;7116;52.152;5.392;2023-08-24T07:54:55;9.07;;;5.47;;
14080;SDS011;7116;52.152;5.392;2023-08-24T07:57:34;8.65;;;5.28;;
14080;SDS011;7116;52.152;5.392;2023-08-24T08:00:04;13.07;;;5.75;;
14080;SDS011;7116;52.152;5.392;2023-08-24T08:02:40;8.00;;;5.57;;
14080;SDS011;7116;52.152;5.392;2023-08-24T08:05:23;9.60;;;4.93;;
14080;SDS011;7116;52.152;5.392;2023-08-24T08:08:04;9.85;;;5.15;;
14080;SDS011;7116;52.152;5.392;2023-08-24T08:10:32;8.83;;;5.07;;
14080;SDS011;7116;52.152;5.392;2023-08-24T08:12:57;9.80;;;4.73;;
14080;SDS011;7116;52.152;5.392;2023-08-24T08:15:24;8.55;;;5.90;;
14080;SDS011;7116;52.152;5.392;2023-08-24T08:17:55;9.13;;;5.03;;
14080;SDS011;7116;52.152;5.392;2023-08-24T08:20:20;11.55;;;5.90;;
14080;SDS011;7116;52.152;5.392;2023-08-24T08:22:48;9.02;;;5.20;;
14080;SDS011;7116;52.152;5.392;2023-08-24T08:25:28;9.37;;;5.77;;
14080;SDS011;7116;52.152;5.392;2023-08-24T08:27:54;9.73;;;5.82;;
14080;SDS011;7116;52.152;5.392;2023-08-24T08:30:39;7.10;;;4.47;;
14080;SDS011;7116;52.152;5.392;2023-08-24T08:33:05;9.80;;;5.90;;
14080;SDS011;7116;52.152;5.392;2023-08-24T08:35:47;10.13;;;6.67;;
14080;SDS011;7116;52.152;5.392;2023-08-24T08:38:50;10.52;;;6.40;;
14080;SDS011;7116;52.152;5.392;2023-08-24T08:44:23;14.30;;;6.25;;
14080;SDS011;7116;52.152;5.392;2023-08-24T08:46:54;9.48;;;6.43;;
14080;SDS011;7116;52.152;5.392;2023-08-24T08:49:19;10.13;;;5.50;;
14080;SDS011;7116;52.152;5.392;2023-08-24T08:51:44;9.83;;;6.17;;
14080;SDS011;7116;52.152;5.392;2023-08-24T08:54:10;11.03;;;6.17;;
14080;SDS011;7116;52.152;5.392;2023-08-24T08:56:36;11.02;;;6.88;;
14080;SDS011;7116;52.152;5.392;2023-08-24T08:59:01;8.77;;;6.33;;
14080;SDS011;7116;52.152;5.392;2023-08-24T09:01:27;11.63;;;6.60;;
14080;SDS011;7116;52.152;5.392;2023-08-24T09:03:53;11.80;;;6.78;;
14080;SDS011;7116;52.152;5.392;2023-08-24T09:06:19;11.45;;;6.32;;
14080;SDS011;7116;52.152;5.392;2023-08-24T09:08:44;14.40;;;6.73;;
14080;SDS011;7116;52.152;5.392;2023-08-24T09:11:10;9.00;;;5.90;;
14080;SDS011;7116;52.152;5.392;2023-08-24T09:13:35;11.17;;;5.97;;
14080;SDS011;7116;52.152;5.392;2023-08-24T09:16:03;8.13;;;5.10;;
14080;SDS011;7116;52.152;5.392;2023-08-24T09:18:36;8.10;;;5.45;;
14080;SDS011;7116;52.152;5.392;2023-08-24T09:21:07;9.60;;;6.25;;
14080;SDS011;7116;52.152;5.392;2023-08-24T09:23:33;12.27;;;6.00;;
14080;SDS011;7116;52.152;5.392;2023-08-24T09:25:58;11.17;;;6.17;;
14080;SDS011;7116;52.152;5.392;2023-08-24T09:28:23;16.10;;;6.10;;
14080;SDS011;7116;52.152;5.392;2023-08-24T09:30:52;10.98;;;5.65;;
14080;SDS011;7116;52.152;5.392;2023-08-24T09:33:17;8.88;;;6.15;;
14080;SDS011;7116;52.152;5.392;2023-08-24T09:35:43;14.10;;;5.97;;
14080;SDS011;7116;52.152;5.392;2023-08-24T09:38:15;12.77;;;6.13;;
14080;SDS011;7116;52.152;5.392;2023-08-24T09:40:44;9.20;;;5.88;;
14080;SDS011;7116;52.152;5.392;2023-08-24T09:43:12;9.73;;;5.68;;
14080;SDS011;7116;52.152;5.392;2023-08-24T09:45:37;8.63;;;5.80;;
14080;SDS011;7116;52.152;5.392;2023-08-24T09:48:03;11.03;;;5.77;;
14080;SDS011;7116;52.152;5.392;2023-08-24T09:50:28;8.02;;;4.80;;
14080;SDS011;7116;52.152;5.392;2023-08-24T09:52:53;10.07;;;5.67;;
14080;SDS011;7116;52.152;5.392;2023-08-24T09:55:21;14.10;;;5.95;;
14080;SDS011;7116;52.152;5.392;2023-08-24T09:57:48;15.13;;;6.27;;
14080;SDS011;7116;52.152;5.392;2023-08-24T10:00:15;9.38;;;5.47;;
14080;SDS011;7116;52.152;5.392;2023-08-24T10:02:50;9.83;;;5.67;;
14080;SDS011;7116;52.152;5.392;2023-08-24T10:05:19;9.57;;;5.85;;
14080;SDS011;7116;52.152;5.392;2023-08-24T10:07:47;10.25;;;6.10;;
14080;SDS011;7116;52.152;5.392;2023-08-24T10:10:13;10.93;;;6.50;;
14080;SDS011;7116;52.152;5.392;2023-08-24T10:12:41;8.45;;;5.88;;
14080;SDS011;7116;52.152;5.392;2023-08-24T10:15:08;7.13;;;5.30;;
14080;SDS011;7116;52.152;5.392;2023-08-24T10:17:36;12.77;;;5.80;;
14080;SDS011;7116;52.152;5.392;2023-08-24T10:20:02;8.48;;;5.85;;
14080;SDS011;7116;52.152;5.392;2023-08-24T10:22:31;9.57;;;5.60;;
14080;SDS011;7116;52.152;5.392;2023-08-24T10:25:07;10.73;;;5.55;;
14080;SDS011;7116;52.152;5.392;2023-08-24T10:27:34;9.43;;;5.93;;
14080;SDS011;7116;52.152;5.392;2023-08-24T10:30:00;10.63;;;5.50;;
14080;SDS011;7116;52.152;5.392;2023-08-24T10:32:33;13.57;;;6.40;;
14080;SDS011;7116;52.152;5.392;2023-08-24T10:35:01;10.53;;;5.93;;
14080;SDS011;7116;52.152;5.392;2023-08-24T10:40:36;15.65;;;6.30;;
14080;SDS011;7116;52.152;5.392;2023-08-24T10:46:17;9.60;;;5.65;;
14080;SDS011;7116;52.152;5.392;2023-08-24T10:56:12;8.77;;;6.27;;
14080;SDS011;7116;52.152;5.392;2023-08-24T10:58:37;9.55;;;6.57;;
14080;SDS011;7116;52.152;5.392;2023-08-24T11:01:05;8.80;;;5.87;;
14080;SDS011;7116;52.152;5.392;2023-08-24T11:03:50;15.32;;;6.35;;
14080;SDS011;7116;52.152;5.392;2023-08-24T11:06:21;8.77;;;5.93;;
14080;SDS011;7116;52.152;5.392;2023-08-24T11:09:04;14.45;;;6.57;;
14080;SDS011;7116;52.152;5.392;2023-08-24T11:11:29;11.95;;;7.22;;
14080;SDS011;7116;52.152;5.392;2023-08-24T11:14:14;11.60;;;6.80;;
14080;SDS011;7116;52.152;5.392;2023-08-24T11:16:41;12.10;;;6.93;;
14080;SDS011;7116;52.152;5.392;2023-08-24T11:19:07;11.05;;;7.55;;
14080;SDS011;7116;52.152;5.392;2023-08-24T11:21:33;11.23;;;6.97;;
14080;SDS011;7116;52.152;5.392;2023-08-24T11:23:59;15.00;;;7.33;;
14080;SDS011;7116;52.152;5.392;2023-08-24T11:26:24;13.13;;;7.87;;
14080;SDS011;7116;52.152;5.392;2023-08-24T11:28:52;11.15;;;7.63;;
14080;SDS011;7116;52.152;5.392;2023-08-24T11:31:18;10.18;;;6.50;;
14080;SDS011;7116;52.152;5.392;2023-08-24T11:33:43;13.57;;;7.27;;
14080;SDS011;7116;52.152;5.392;2023-08-24T11:36:08;9.30;;;6.10;;
14080;SDS011;7116;52.152;5.392;2023-08-24T11:38:40;9.03;;;6.77;;
14080;SDS011;7116;52.152;5.392;2023-08-24T11:43:38;10.38;;;6.90;;
14080;SDS011;7116;52.152;5.392;2023-08-24T11:46:18;11.57;;;7.10;;
14080;SDS011;7116;52.152;5.392;2023-08-24T11:48:43;11.17;;;7.30;;
14080;SDS011;7116;52.152;5.392;2023-08-24T11:51:09;13.90;;;7.45;;
14080;SDS011;7116;52.152;5.392;2023-08-24T12:11:46;11.50;;;7.50;;
14080;SDS011;7116;52.152;5.392;2023-08-24T12:17:22;17.45;;;7.40;;
14080;SDS011;7116;52.152;5.392;2023-08-24T12:23:43;12.80;;;6.85;;
14080;SDS011;7116;52.152;5.392;2023-08-24T12:29:22;11.73;;;6.88;;
14080;SDS011;7116;52.152;5.392;2023-08-24T12:35:00;10.90;;;7.25;;
14080;SDS011;7116;52.152;5.392;2023-08-24T12:43:49;15.20;;;8.10;;
14080;SDS011;7116;52.152;5.392;2023-08-24T12:46:17;14.15;;;8.13;;
14080;SDS011;7116;52.152;5.392;2023-08-24T12:48:50;14.57;;;8.27;;
14080;SDS011;7116;52.152;5.392;2023-08-24T12:54:41;16.75;;;8.73;;
14080;SDS011;7116;52.152;5.392;2023-08-24T12:57:11;11.48;;;7.45;;
14080;SDS011;7116;52.152;5.392;2023-08-24T12:59:38;12.17;;;7.90;;
14080;SDS011;7116;52.152;5.392;2023-08-24T13:02:06;14.55;;;7.22;;
14080;SDS011;7116;52.152;5.392;2023-08-24T13:04:36;16.52;;;8.77;;
14080;SDS011;7116;52.152;5.392;2023-08-24T13:10:10;19.13;;;8.88;;
14080;SDS011;7116;52.152;5.392;2023-08-24T13:25:05;12.85;;;8.38;;
14080;SDS011;7116;52.152;5.392;2023-08-24T13:30:45;15.05;;;8.32;;
14080;SDS011;7116;52.152;5.392;2023-08-24T13:33:23;12.35;;;7.70;;
14080;SDS011;7116;52.152;5.392;2023-08-24T13:35:56;13.52;;;8.10;;
14080;SDS011;7116;52.152;5.392;2023-08-24T13:41:35;16.87;;;8.70;;
14080;SDS011;7116;52.152;5.392;2023-08-24T13:44:37;14.05;;;7.88;;
14080;SDS011;7116;52.152;5.392;2023-08-24T13:47:11;12.90;;;8.15;;
14080;SDS011;7116;52.152;5.392;2023-08-24T13:50:13;12.93;;;8.63;;
14080;SDS011;7116;52.152;5.392;2023-08-24T13:53:16;13.68;;;8.88;;
14080;SDS011;7116;52.152;5.392;2023-08-24T14:02:02;11.23;;;9.10;;
14080;SDS011;7116;52.152;5.392;2023-08-24T14:07:43;17.17;;;10.23;;
14080;SDS011;7116;52.152;5.392;2023-08-24T14:10:08;16.10;;;10.50;;
14080;SDS011;7116;52.152;5.392;2023-08-24T14:13:03;14.13;;;10.27;;
14080;SDS011;7116;52.152;5.392;2023-08-24T14:18:29;14.68;;;10.52;;
14080;SDS011;7116;52.152;5.392;2023-08-24T14:21:15;20.75;;;10.27;;
14080;SDS011;7116;52.152;5.392;2023-08-24T14:24:15;17.67;;;9.20;;
14080;SDS011;7116;52.152;5.392;2023-08-24T14:26:41;15.73;;;10.65;;
14080;SDS011;7116;52.152;5.392;2023-08-24T14:29:10;24.70;;;11.60;;
14080;SDS011;7116;52.152;5.392;2023-08-24T14:31:44;15.60;;;10.48;;
14080;SDS011;7116;52.152;5.392;2023-08-24T14:34:14;15.82;;;11.50;;
14080;SDS011;7116;52.152;5.392;2023-08-24T14:37:06;17.67;;;11.57;;
14080;SDS011;7116;52.152;5.392;2023-08-24T14:43:11;20.05;;;11.52;;
14080;SDS011;7116;52.152;5.392;2023-08-24T14:46:05;19.98;;;12.20;;
14080;SDS011;7116;52.152;5.392;2023-08-24T14:48:41;16.98;;;10.55;;
14080;SDS011;7116;52.152;5.392;2023-08-24T14:51:08;13.37;;;9.87;;
14080;SDS011;7116;52.152;5.392;2023-08-24T14:53:56;14.73;;;10.00;;
14080;SDS011;7116;52.152;5.392;2023-08-24T14:56:53;16.37;;;9.90;;
14080;SDS011;7116;52.152;5.392;2023-08-24T14:59:38;14.55;;;9.75;;
14080;SDS011;7116;52.152;5.392;2023-08-24T15:07:47;16.38;;;9.00;;
14080;SDS011;7116;52.152;5.392;2023-08-24T15:10:12;13.73;;;8.83;;
14080;SDS011;7116;52.152;5.392;2023-08-24T15:15:26;12.82;;;8.55;;
14080;SDS011;7116;52.152;5.392;2023-08-24T15:18:01;12.50;;;8.77;;
14080;SDS011;7116;52.152;5.392;2023-08-24T15:20:31;11.20;;;8.60;;
14080;SDS011;7116;52.152;5.392;2023-08-24T15:23:04;11.80;;;7.68;;
14080;SDS011;7116;52.152;5.392;2023-08-24T15:25:30;11.52;;;8.40;;
14080;SDS011;7116;52.152;5.392;2023-08-24T15:27:56;19.37;;;8.83;;
14080;SDS011;7116;52.152;5.392;2023-08-24T15:30:21;14.50;;;8.00;;
14080;SDS011;7116;52.152;5.392;2023-08-24T15:32:47;13.15;;;8.05;;
14080;SDS011;7116;52.152;5.392;2023-08-24T15:35:12;13.83;;;7.40;;
14080;SDS011;7116;52.152;5.392;2023-08-24T15:37:37;12.57;;;7.63;;
14080;SDS011;7116;52.152;5.392;2023-08-24T15:40:04;15.17;;;8.10;;
14080;SDS011;7116;52.152;5.392;2023-08-24T15:42:30;11.25;;;7.50;;
14080;SDS011;7116;52.152;5.392;2023-08-24T15:44:57;18.23;;;7.63;;
14080;SDS011;7116;52.152;5.392;2023-08-24T15:47:22;10.27;;;6.40;;
14080;SDS011;7116;52.152;5.392;2023-08-24T15:49:48;12.10;;;7.50;;
14080;SDS011;7116;52.152;5.392;2023-08-24T15:52:14;12.00;;;7.70;;
14080;SDS011;7116;52.152;5.392;2023-08-24T15:54:39;13.07;;;7.43;;
14080;SDS011;7116;52.152;5.392;2023-08-24T15:57:04;11.97;;;6.77;;
14080;SDS011;7116;52.152;5.392;2023-08-24T15:59:30;8.90;;;6.57;;
14080;SDS011;7116;52.152;5.392;2023-08-24T16:01:55;9.90;;;5.63;;
14080;SDS011;7116;52.152;5.392;2023-08-24T16:04:21;12.33;;;6.00;;
14080;SDS011;7116;52.152;5.392;2023-08-24T16:06:46;11.57;;;6.30;;
14080;SDS011;7116;52.152;5.392;2023-08-24T16:09:12;9.07;;;5.13;;
14080;SDS011;7116;52.152;5.392;2023-08-24T16:11:37;10.10;;;5.40;;
14080;SDS011;7116;52.152;5.392;2023-08-24T16:14:03;11.47;;;5.37;;
14080;SDS011;7116;52.152;5.392;2023-08-24T16:16:28;13.80;;;5.43;;
14080;SDS011;7116;52.152;5.392;2023-08-24T16:18:54;9.13;;;5.32;;
14080;SDS011;7116;52.152;5.392;2023-08-24T16:21:20;11.43;;;5.20;;
14080;SDS011;7116;52.152;5.392;2023-08-24T16:23:46;9.95;;;4.63;;
14080;SDS011;7116;52.152;5.392;2023-08-24T16:26:11;8.47;;;4.40;;
14080;SDS011;7116;52.152;5.392;2023-08-24T16:28:36;9.00;;;5.17;;
14080;SDS011;7116;52.152;5.392;2023-08-24T16:31:01;9.27;;;4.27;;
14080;SDS011;7116;52.152;5.392;2023-08-24T16:33:27;10.30;;;4.75;;
14080;SDS011;7116;52.152;5.392;2023-08-24T16:35:52;8.87;;;4.80;;
14080;SDS011;7116;52.152;5.392;2023-08-24T16:38:17;9.20;;;4.50;;
14080;SDS011;7116;52.152;5.392;2023-08-24T16:40:43;7.47;;;4.13;;
14080;SDS011;7116;52.152;5.392;2023-08-24T16:43:10;11.03;;;4.70;;
14080;SDS011;7116;52.152;5.392;2023-08-24T16:45:35;7.78;;;4.47;;
14080;SDS011;7116;52.152;5.392;2023-08-24T16:48:01;10.83;;;4.17;;
14080;SDS011;7116;52.152;5.392;2023-08-24T16:50:26;8.47;;;4.23;;
14080;SDS011;7116;52.152;5.392;2023-08-24T16:52:52;10.43;;;4.13;;
14080;SDS011;7116;52.152;5.392;2023-08-24T16:55:17;8.20;;;4.40;;
14080;SDS011;7116;52.152;5.392;2023-08-24T16:57:42;8.82;;;4.03;;
14080;SDS011;7116;52.152;5.392;2023-08-24T17:00:10;6.47;;;3.70;;
14080;SDS011;7116;52.152;5.392;2023-08-24T17:02:35;7.60;;;3.63;;
14080;SDS011;7116;52.152;5.392;2023-08-24T17:05:01;5.93;;;3.63;;
14080;SDS011;7116;52.152;5.392;2023-08-24T17:07:26;6.32;;;3.28;;
14080;SDS011;7116;52.152;5.392;2023-08-24T17:09:51;8.13;;;3.43;;
14080;SDS011;7116;52.152;5.392;2023-08-24T17:12:17;7.23;;;3.43;;
14080;SDS011;7116;52.152;5.392;2023-08-24T17:14:43;6.05;;;3.25;;
14080;SDS011;7116;52.152;5.392;2023-08-24T17:17:08;5.20;;;2.77;;
14080;SDS011;7116;52.152;5.392;2023-08-24T17:19:34;7.63;;;3.40;;
14080;SDS011;7116;52.152;5.392;2023-08-24T17:22:00;9.70;;;3.23;;
14080;SDS011;7116;52.152;5.392;2023-08-24T17:24:25;6.93;;;3.47;;
14080;SDS011;7116;52.152;5.392;2023-08-24T17:26:52;7.80;;;3.10;;
14080;SDS011;7116;52.152;5.392;2023-08-24T17:29:17;6.57;;;3.40;;
14080;SDS011;7116;52.152;5.392;2023-08-24T17:31:43;7.50;;;3.30;;
14080;SDS011;7116;52.152;5.392;2023-08-24T17:34:08;6.47;;;3.30;;
14080;SDS011;7116;52.152;5.392;2023-08-24T17:36:33;6.37;;;3.17;;
14080;SDS011;7116;52.152;5.392;2023-08-24T17:38:58;7.33;;;3.27;;
14080;SDS011;7116;52.152;5.392;2023-08-24T17:41:24;7.33;;;3.10;;
14080;SDS011;7116;52.152;5.392;2023-08-24T17:43:49;6.83;;;2.80;;
14080;SDS011;7116;52.152;5.392;2023-08-24T17:46:17;5.93;;;2.72;;
14080;SDS011;7116;52.152;5.392;2023-08-24T17:48:44;8.10;;;3.17;;
14080;SDS011;7116;52.152;5.392;2023-08-24T17:51:10;4.63;;;2.93;;
14080;SDS011;7116;52.152;5.392;2023-08-24T17:53:37;6.03;;;3.20;;
14080;SDS011;7116;52.152;5.392;2023-08-24T17:56:02;5.20;;;3.23;;
14080;SDS011;7116;52.152;5.392;2023-08-24T17:58:28;5.20;;;3.28;;
14080;SDS011;7116;52.152;5.392;2023-08-24T18:00:55;5.37;;;2.67;;
14080;SDS011;7116;52.152;5.392;2023-08-24T18:03:20;5.82;;;2.60;;
14080;SDS011;7116;52.152;5.392;2023-08-24T18:05:46;6.97;;;3.10;;
14080;SDS011;7116;52.152;5.392;2023-08-24T18:08:14;4.43;;;2.90;;
14080;SDS011;7116;52.152;5.392;2023-08-24T18:10:39;4.73;;;2.77;;
14080;SDS011;7116;52.152;5.392;2023-08-24T18:13:04;6.00;;;2.60;;
14080;SDS011;7116;52.152;5.392;2023-08-24T18:15:33;6.03;;;3.07;;
14080;SDS011;7116;52.152;5.392;2023-08-24T18:17:59;7.55;;;2.95;;
14080;SDS011;7116;52.152;5.392;2023-08-24T18:20:25;4.63;;;2.80;;
14080;SDS011;7116;52.152;5.392;2023-08-24T18:22:50;7.70;;;2.83;;
14080;SDS011;7116;52.152;5.392;2023-08-24T18:25:15;5.13;;;2.77;;
14080;SDS011;7116;52.152;5.392;2023-08-24T18:27:40;4.03;;;2.80;;
14080;SDS011;7116;52.152;5.392;2023-08-24T18:30:06;6.43;;;2.63;;
14080;SDS011;7116;52.152;5.392;2023-08-24T18:32:31;4.93;;;2.67;;
14080;SDS011;7116;52.152;5.392;2023-08-24T18:34:57;6.82;;;2.90;;
14080;SDS011;7116;52.152;5.392;2023-08-24T18:37:24;6.68;;;2.80;;
14080;SDS011;7116;52.152;5.392;2023-08-24T18:39:50;4.87;;;2.63;;
14080;SDS011;7116;52.152;5.392;2023-08-24T18:42:15;5.37;;;2.40;;